Terminal Aerodrome Forecast
Issued by NWS St Louis, MO

Home | Current Version | Previous Version | Text Only | Print | Product List | Glossary On
Versions: 1 2 3 4 5 6 7 8 9 10 11 12 13 14 15 16 17 18 19 20 21 22 23 24 25 26 27 28 29 30 31 32
059
FTUS43 KLSX 202101 AAA
TAFSTL
TAF AMD
KSTL 202101Z 2021/2124 17015G25KT P6SM BKN250
     FM210100 16009KT P6SM VCSH OVC130
     FM210400 19006KT 5SM -SHRA SCT025 OVC070
     FM210900 VRB03KT P6SM VCSH SCT025 OVC040
     FM211200 VRB03KT P6SM OVC060
     FM211900 29004KT P6SM SCT050=

USA.gov is the U.S. government's official web portal to all federal, state and local government web resources and services.